Time;durP1;ratioP1;P1;durP2;ratioP2;P2;SDS_P1;SDS_P2;PMS_P1;PMS_P2;Temp;Humidity;BMP_temperature;BMP_pressure;BME280_temperature;BME280_humidity;BME280_pressure;Samples;Min_cycle;Max_cycle;Signal;HPM_P1;HPM_P2
2022/06/03 00:02:35;;;;;;;0.00;0.00;;;20.20;90.00;;;;;;4201749;28;20040;-74
2022/06/03 00:05:23;;;;;;;0.00;0.00;;;20.10;89.80;;;;;;4216396;28;20060;-73
2022/06/03 00:07:55;;;;;;;0.00;0.00;;;20.10;90.00;;;;;;4216203;28;20048;-76
2022/06/03 00:10:29;;;;;;;0.00;0.00;;;20.00;90.00;;;;;;4201646;28;20040;-75
2022/06/03 00:13:20;;;;;;;0.00;0.00;;;20.00;90.10;;;;;;4216207;28;20051;-72
2022/06/03 00:16:17;;;;;;;0.00;0.00;;;19.90;90.20;;;;;;4173671;28;20075;-73
2022/06/03 00:18:48;;;;;;;0.00;0.00;;;19.90;90.20;;;;;;4201401;28;20058;-74
2022/06/03 00:21:46;;;;;;;0.00;0.00;;;19.80;90.20;;;;;;4215928;28;20063;-74
2022/06/03 00:24:15;;;;;;;0.00;0.00;;;19.70;90.50;;;;;;4200973;28;20049;-74
2022/06/03 00:27:15;;;;;;;0.00;0.00;;;19.60;90.70;;;;;;4201371;28;20051;-74
2022/06/03 00:29:59;;;;;;;0.00;0.00;;;19.60;90.70;;;;;;4195243;28;20071;-75
2022/06/03 00:32:49;;;;;;;0.00;0.00;;;19.70;90.70;;;;;;4216942;28;20121;-74
2022/06/03 00:35:39;;;;;;;0.00;0.00;;;19.70;90.60;;;;;;4201978;28;20426;-74
2022/06/03 00:39:21;;;;;;;0.00;0.00;;;19.70;90.70;;;;;;4216258;28;20462;-74
2022/06/03 00:42:22;;;;;;;0.00;0.00;;;19.70;90.60;;;;;;4200723;28;20076;-73
2022/06/03 00:44:47;;;;;;;0.00;0.00;;;19.70;90.60;;;;;;4160889;28;20052;-74
2022/06/03 00:47:28;;;;;;;0.00;0.00;;;19.70;90.60;;;;;;4216093;28;20044;-74
2022/06/03 00:50:09;;;;;;;0.00;0.00;;;19.80;90.60;;;;;;4201634;28;20040;-75
2022/06/03 00:52:34;;;;;;;0.00;0.00;;;19.70;90.70;;;;;;4215627;28;20047;-72
2022/06/03 01:01:27;;;;;;;0.00;0.00;;;19.50;91.20;;;;;;4216867;28;20044;-75
2022/06/03 01:04:02;;;;;;;0.00;0.00;;;19.50;91.10;;;;;;4202184;28;20095;-74
2022/06/03 01:06:38;;;;;;;0.00;0.00;;;19.60;91.10;;;;;;4217057;28;20048;-74
2022/06/03 01:09:28;;;;;;;0.00;0.00;;;19.60;91.10;;;;;;4203145;28;20433;-73
2022/06/03 01:12:12;;;;;;;0.00;0.00;;;19.70;91.20;;;;;;4195121;28;20128;-75
2022/06/03 01:15:05;;;;;;;0.00;0.00;;;19.60;91.10;;;;;;4207839;28;20056;-72
2022/06/03 01:18:30;;;;;;;0.00;0.00;;;19.60;91.10;;;;;;4187707;28;20098;-74
2022/06/03 01:21:29;;;;;;;0.00;0.00;;;19.60;91.20;;;;;;4131175;28;20489;-73
2022/06/03 01:24:11;;;;;;;0.00;0.00;;;19.60;91.40;;;;;;4214924;28;20453;-74
2022/06/03 01:26:45;;;;;;;0.00;0.00;;;19.60;91.20;;;;;;4186324;28;20423;-73
2022/06/03 01:29:10;;;;;;;0.00;0.00;;;19.60;91.20;;;;;;4215105;28;20466;-75
2022/06/03 01:32:14;;;;;;;0.00;0.00;;;19.50;91.20;;;;;;4200566;28;20103;-73
2022/06/03 01:34:42;;;;;;;0.00;0.00;;;19.50;91.20;;;;;;4199952;28;20110;-74
2022/06/03 01:37:33;;;;;;;0.00;0.00;;;19.50;91.30;;;;;;4186668;28;20094;-73
2022/06/03 01:40:10;;;;;;;0.00;0.00;;;19.60;91.50;;;;;;4200204;28;20110;-76
2022/06/03 01:42:41;;;;;;;0.00;0.00;;;19.50;91.60;;;;;;4200077;28;20036;-75
2022/06/03 01:45:27;;;;;;;0.00;0.00;;;19.40;91.80;;;;;;4186361;28;20085;-72
2022/06/03 01:48:08;;;;;;;0.00;0.00;;;19.30;92.10;;;;;;4186110;28;20107;-76
2022/06/03 01:51:15;;;;;;;0.00;0.00;;;19.30;92.30;;;;;;4186508;28;20053;-73
2022/06/03 01:54:05;;;;;;;0.00;0.00;;;19.30;92.40;;;;;;4200013;28;20052;-74
2022/06/03 01:56:51;;;;;;;0.00;0.00;;;19.40;92.20;;;;;;4172436;28;20061;-76
2022/06/03 01:59:22;;;;;;;0.00;0.00;;;19.40;92.00;;;;;;4186338;28;20072;-74
2022/06/03 02:02:21;;;;;;;0.00;0.00;;;19.30;92.00;;;;;;4185997;28;20041;-74
2022/06/03 02:05:04;;;;;;;0.00;0.00;;;19.30;91.90;;;;;;4199964;28;20123;-73
2022/06/03 02:07:48;;;;;;;0.00;0.00;;;19.30;91.90;;;;;;4200162;28;20052;-74
2022/06/03 02:10:25;;;;;;;0.00;0.00;;;19.30;91.90;;;;;;4186061;28;20065;-73
2022/06/03 02:13:26;;;;;;;0.00;0.00;;;19.30;91.90;;;;;;4185869;28;20087;-76
2022/06/03 02:16:07;;;;;;;0.00;0.00;;;19.30;91.90;;;;;;4172068;28;20107;-75
2022/06/03 02:19:03;;;;;;;0.00;0.00;;;19.30;91.80;;;;;;4189252;28;20514;-74
2022/06/03 02:21:51;;;;;;;0.00;0.00;;;19.40;91.80;;;;;;4203097;28;20102;-75
2022/06/03 02:24:54;;;;;;;0.00;0.00;;;19.30;91.70;;;;;;4189251;28;20468;-74
2022/06/03 02:27:34;;;;;;;0.00;0.00;;;19.20;91.70;;;;;;4189257;28;20553;-76
2022/06/03 02:30:27;;;;;;;0.00;0.00;;;18.90;92.10;;;;;;4203013;28;20482;-75
2022/06/03 02:33:34;;;;;;;0.00;0.00;;;18.80;92.40;;;;;;4202908;28;20036;-73
2022/06/03 02:36:13;;;;;;;0.00;0.00;;;18.80;92.60;;;;;;4188879;28;20057;-74
2022/06/03 02:38:54;;;;;;;0.00;0.00;;;18.90;92.60;;;;;;4175072;28;20140;-75
2022/06/03 02:42:03;;;;;;;0.00;0.00;;;19.00;92.40;;;;;;4202931;28;20100;-72
2022/06/03 02:44:46;;;;;;;0.00;0.00;;;19.00;92.30;;;;;;4181004;28;20165;-72
2022/06/03 02:47:58;;;;;;;0.00;0.00;;;18.90;92.30;;;;;;4177852;28;20483;-75
2022/06/03 02:50:35;;;;;;;0.00;0.00;;;19.00;92.40;;;;;;4175082;28;20045;-73
2022/06/03 02:53:18;;;;;;;0.00;0.00;;;19.00;92.30;;;;;;4188962;28;20107;-75
2022/06/03 02:55:51;;;;;;;0.00;0.00;;;19.00;92.30;;;;;;4194844;28;20048;-74
2022/06/03 02:58:41;;;;;;;0.00;0.00;;;18.90;92.50;;;;;;4202479;28;20091;-73
2022/06/03 03:01:09;;;;;;;0.00;0.00;;;18.90;92.30;;;;;;4202658;28;20052;-73
2022/06/03 03:03:46;;;;;;;0.00;0.00;;;18.90;92.30;;;;;;4188698;28;20135;-74
2022/06/03 03:06:44;;;;;;;0.00;0.00;;;18.90;92.40;;;;;;4202542;28;20340;-71
2022/06/03 03:09:42;;;;;;;0.00;0.00;;;18.90;92.40;;;;;;4188876;28;20529;-76
2022/06/03 03:12:55;;;;;;;0.00;0.00;;;18.90;92.30;;;;;;4188540;28;20045;-73
2022/06/03 03:15:39;;;;;;;0.00;0.00;;;18.90;92.30;;;;;;4151789;28;20123;-74
2022/06/03 03:18:23;;;;;;;0.00;0.00;;;18.80;92.40;;;;;;4202532;28;20048;-74
2022/06/03 03:20:45;;;;;;;0.00;0.00;;;18.80;92.40;;;;;;4203136;28;20421;-71
2022/06/03 03:23:28;;;;;;;0.00;0.00;;;18.70;92.30;;;;;;4188822;28;20045;-75
2022/06/03 03:26:12;;;;;;;0.00;0.00;;;18.70;92.40;;;;;;4202216;28;20048;-71
2022/06/03 03:29:01;;;;;;;0.00;0.00;;;18.70;92.40;;;;;;4187919;28;20372;-73
2022/06/03 03:31:48;;;;;;;0.00;0.00;;;18.70;92.30;;;;;;4177404;28;20076;-74
2022/06/03 03:34:27;;;;;;;0.00;0.00;;;18.70;92.30;;;;;;4201988;28;20095;-75
2022/06/03 03:37:18;;;;;;;0.00;0.00;;;18.70;92.30;;;;;;4187723;28;20053;-75
2022/06/03 03:40:00;;;;;;;0.00;0.00;;;18.70;92.30;;;;;;4188066;28;20110;-75
2022/06/03 03:43:00;;;;;;;0.00;0.00;;;18.50;92.60;;;;;;4174168;28;20080;-73
2022/06/03 03:45:41;;;;;;;0.00;0.00;;;18.40;92.90;;;;;;4186849;28;20147;-74
2022/06/03 03:48:21;;;;;;;0.00;0.00;;;18.30;93.10;;;;;;4188236;28;20163;-73
2022/06/03 03:50:57;;;;;;;0.00;0.00;;;18.30;93.30;;;;;;4188464;28;20546;-75
2022/06/03 03:53:46;;;;;;;0.00;0.00;;;18.20;93.60;;;;;;4202246;28;20090;-72
2022/06/03 03:56:17;;;;;;;0.00;0.00;;;18.10;93.90;;;;;;4188660;28;20118;-75
2022/06/03 03:59:05;;;;;;;0.00;0.00;;;18.10;94.10;;;;;;4202267;28;20044;-74
2022/06/03 04:02:05;;;;;;;0.00;0.00;;;18.20;94.20;;;;;;4202233;28;20079;-72
2022/06/03 04:04:39;;;;;;;0.00;0.00;;;18.40;94.00;;;;;;4174541;28;20169;-74
2022/06/03 04:07:20;;;;;;;0.00;0.00;;;18.50;93.90;;;;;;4201998;28;20102;-73
2022/06/03 04:10:20;;;;;;;0.00;0.00;;;18.60;93.90;;;;;;4202362;28;20052;-73
2022/06/03 04:13:10;;;;;;;0.00;0.00;;;18.60;93.90;;;;;;4201921;28;20041;-72
2022/06/03 04:15:47;;;;;;;0.00;0.00;;;18.60;94.00;;;;;;4188069;28;20445;-75
2022/06/03 04:18:28;;;;;;;0.00;0.00;;;18.60;94.10;;;;;;4173919;28;20080;-76
2022/06/03 04:20:52;;;;;;;0.00;0.00;;;18.70;94.00;;;;;;4195830;28;20067;-76
2022/06/03 04:23:53;;;;;;;0.00;0.00;;;18.70;94.00;;;;;;4201678;28;20504;-72
2022/06/03 04:26:46;;;;;;;0.00;0.00;;;18.80;94.00;;;;;;4172559;28;20459;-75
2022/06/03 04:29:36;;;;;;;0.00;0.00;;;18.80;94.00;;;;;;4201396;28;20036;-74
2022/06/03 04:32:04;;;;;;;0.00;0.00;;;18.80;94.00;;;;;;4187708;28;20053;-71
2022/06/03 04:34:26;;;;;;;0.00;0.00;;;18.80;94.00;;;;;;4187386;28;20076;-74
2022/06/03 04:37:27;;;;;;;0.00;0.00;;;18.80;94.00;;;;;;4187622;28;20076;-74
2022/06/03 04:40:32;;;;;;;0.00;0.00;;;18.80;93.90;;;;;;4195153;28;20044;-72
2022/06/03 04:43:14;;;;;;;0.00;0.00;;;18.80;93.90;;;;;;4187498;28;20835;-75
2022/06/03 04:46:01;;;;;;;0.00;0.00;;;18.80;94.00;;;;;;4193197;28;20044;-75
2022/06/03 04:48:31;;;;;;;0.00;0.00;;;18.80;93.90;;;;;;4187106;28;20040;-74
2022/06/03 04:51:02;;;;;;;0.00;0.00;;;18.90;93.90;;;;;;4173802;28;20059;-75
2022/06/03 04:53:42;;;;;;;0.00;0.00;;;18.80;93.80;;;;;;4201700;28;20137;-73
2022/06/03 04:56:29;;;;;;;0.00;0.00;;;18.60;94.10;;;;;;4201427;28;20048;-74
2022/06/03 04:59:08;;;;;;;0.00;0.00;;;18.50;94.40;;;;;;4195266;28;20083;-76
2022/06/03 05:01:42;;;;;;;0.00;0.00;;;18.40;94.60;;;;;;4200884;28;20040;-74
2022/06/03 05:04:42;;;;;;;0.00;0.00;;;18.60;94.60;;;;;;4202221;28;20045;-71
2022/06/03 05:07:40;;;;;;;0.00;0.00;;;18.70;94.40;;;;;;4187649;28;20045;-73
2022/06/03 05:10:29;;;;;;;0.00;0.00;;;18.70;94.30;;;;;;4187437;28;20065;-77
2022/06/03 05:13:23;;;;;;;0.00;0.00;;;18.90;94.20;;;;;;4187661;28;20052;-73
2022/06/03 05:16:09;;;;;;;0.00;0.00;;;19.10;94.00;;;;;;4201937;28;20049;-73
2022/06/03 05:18:55;;;;;;;0.00;0.00;;;19.20;93.80;;;;;;4187467;28;20522;-78
2022/06/03 05:21:27;;;;;;;0.00;0.00;;;19.10;93.90;;;;;;4186914;28;20048;-77
2022/06/03 05:24:19;;;;;;;0.00;0.00;;;19.20;93.80;;;;;;4187309;28;20083;-73
2022/06/03 05:26:43;;;;;;;0.00;0.00;;;19.40;93.60;;;;;;4200983;28;20044;-72
2022/06/03 05:29:23;;;;;;;0.00;0.00;;;19.60;93.60;;;;;;4186742;28;20053;-74
2022/06/03 05:32:18;;;;;;;0.00;0.00;;;19.80;93.20;;;;;;4187104;28;20144;-74
2022/06/03 05:35:18;;;;;;;0.00;0.00;;;19.80;92.90;;;;;;4186816;28;20052;-74
2022/06/03 05:37:58;;;;;;;0.00;0.00;;;19.70;92.70;;;;;;4200515;28;20102;-77
2022/06/03 05:40:34;;;;;;;0.00;0.00;;;19.90;92.60;;;;;;4186997;28;20521;-72
2022/06/03 05:43:28;;;;;;;0.00;0.00;;;20.00;92.20;;;;;;4201268;28;20044;-76
2022/06/03 05:45:59;;;;;;;0.00;0.00;;;19.90;91.90;;;;;;4167265;28;20570;-71
2022/06/03 05:48:24;;;;;;;0.00;0.00;;;19.90;91.80;;;;;;4200519;28;20080;-74
2022/06/03 05:51:10;;;;;;;0.00;0.00;;;19.90;91.80;;;;;;4193538;28;20110;-73
2022/06/03 05:53:50;;;;;;;0.00;0.00;;;19.80;91.80;;;;;;4200561;28;20057;-75
2022/06/03 05:56:34;;;;;;;0.00;0.00;;;19.70;92.40;;;;;;4200549;28;20063;-72
2022/06/03 05:59:12;;;;;;;0.00;0.00;;;19.70;92.30;;;;;;4186388;28;20094;-72
2022/06/03 06:01:34;;;;;;;0.00;0.00;;;19.90;92.20;;;;;;4186580;28;20542;-73
2022/06/03 06:04:14;;;;;;;0.00;0.00;;;20.00;92.00;;;;;;4200516;28;20059;-74
2022/06/03 06:07:03;;;;;;;0.00;0.00;;;20.10;91.90;;;;;;4192398;28;20445;-72
2022/06/03 06:09:46;;;;;;;0.00;0.00;;;20.20;91.80;;;;;;4172908;28;20656;-74
2022/06/03 06:12:23;;;;;;;0.00;0.00;;;20.40;91.90;;;;;;4186752;28;20080;-72
2022/06/03 06:15:02;;;;;;;0.00;0.00;;;20.50;92.10;;;;;;4186852;28;20049;-74
2022/06/03 06:17:42;;;;;;;0.00;0.00;;;20.60;91.80;;;;;;4186899;28;20102;-72
2022/06/03 06:20:22;;;;;;;0.00;0.00;;;20.70;91.70;;;;;;4186829;28;20049;-74
2022/06/03 06:22:54;;;;;;;0.00;0.00;;;20.80;91.80;;;;;;4200583;28;20044;-74
2022/06/03 06:25:34;;;;;;;0.00;0.00;;;20.90;91.70;;;;;;4185967;28;20045;-73
2022/06/03 06:28:00;;;;;;;0.00;0.00;;;21.00;91.50;;;;;;4200066;28;20053;-70
2022/06/03 06:31:01;;;;;;;0.00;0.00;;;21.00;91.20;;;;;;4200860;28;20060;-71
2022/06/03 06:33:36;;;;;;;0.00;0.00;;;21.10;91.40;;;;;;4200328;28;20443;-74
2022/06/03 06:36:20;;;;;;;0.00;0.00;;;21.30;91.20;;;;;;4200924;28;20055;-73
2022/06/03 06:39:07;;;;;;;0.00;0.00;;;21.40;91.20;;;;;;4200339;28;20087;-72
2022/06/03 06:41:54;;;;;;;0.00;0.00;;;21.50;91.40;;;;;;4186858;28;20053;-71
2022/06/03 06:44:24;;;;;;;0.00;0.00;;;21.60;90.90;;;;;;4174132;28;20045;-70
2022/06/03 06:46:46;;;;;;;0.00;0.00;;;21.60;90.90;;;;;;4187899;28;20454;-72
2022/06/03 06:49:21;;;;;;;0.00;0.00;;;21.60;91.10;;;;;;4187820;28;20110;-71
2022/06/03 06:51:57;;;;;;;0.00;0.00;;;21.60;91.10;;;;;;4202640;28;20048;-69
2022/06/03 06:54:43;;;;;;;0.00;0.00;;;21.60;91.10;;;;;;4188153;28;20088;-72
2022/06/03 06:57:14;;;;;;;0.00;0.00;;;21.70;91.00;;;;;;4187611;28;20072;-71
2022/06/03 06:59:40;;;;;;;0.00;0.00;;;21.80;91.00;;;;;;4200226;28;20474;-72
2022/06/03 07:02:42;;;;;;;0.00;0.00;;;21.80;90.80;;;;;;4186211;28;20463;-70
2022/06/03 07:05:27;;;;;;;0.00;0.00;;;21.90;90.80;;;;;;4119923;28;20409;-70
2022/06/03 07:08:22;;;;;;;0.00;0.00;;;21.90;90.70;;;;;;4197322;28;20406;-70
2022/06/03 07:10:59;;;;;;;0.00;0.00;;;21.90;90.70;;;;;;4191339;28;20190;-70
2022/06/03 07:13:30;;;;;;;0.00;0.00;;;21.90;90.60;;;;;;4158257;28;20096;-69
2022/06/03 07:19:49;;;;;;;0.00;0.00;;;22.10;90.40;;;;;;4185382;28;20064;-71
2022/06/03 07:22:20;;;;;;;0.00;0.00;;;22.10;89.70;;;;;;4167146;28;20065;-73
2022/06/03 07:25:01;;;;;;;0.00;0.00;;;22.10;89.80;;;;;;4165175;28;20041;-68
2022/06/03 07:27:26;;;;;;;0.00;0.00;;;22.10;90.00;;;;;;4158355;28;20101;-71
2022/06/03 07:30:03;;;;;;;0.00;0.00;;;22.10;89.60;;;;;;4199875;28;20445;-69
2022/06/03 07:32:36;;;;;;;0.00;0.00;;;22.10;89.30;;;;;;4186120;28;20049;-75
2022/06/03 07:35:05;;;;;;;0.00;0.00;;;22.00;90.10;;;;;;4185751;28;20097;-71
2022/06/03 07:38:03;;;;;;;0.00;0.00;;;22.10;90.10;;;;;;4185966;28;20056;-70
2022/06/03 07:40:44;;;;;;;0.00;0.00;;;22.40;89.50;;;;;;4149248;28;20049;-73
2022/06/03 07:43:06;;;;;;;0.00;0.00;;;22.50;89.70;;;;;;4172136;28;20475;-71
2022/06/03 07:45:45;;;;;;;0.00;0.00;;;22.40;89.30;;;;;;4185970;28;20063;-72
2022/06/03 07:48:21;;;;;;;0.00;0.00;;;22.20;89.70;;;;;;4165375;28;20108;-73
2022/06/03 07:51:00;;;;;;;0.00;0.00;;;22.40;90.10;;;;;;4185322;28;20144;-69
2022/06/03 07:53:58;;;;;;;0.00;0.00;;;22.70;89.60;;;;;;4171713;28;20133;-71
2022/06/03 07:56:30;;;;;;;0.00;0.00;;;23.00;88.30;;;;;;4184740;28;20059;-71
2022/06/03 07:58:57;;;;;;;0.00;0.00;;;22.80;87.70;;;;;;4171414;28;20133;-72
2022/06/03 08:01:35;;;;;;;0.00;0.00;;;22.90;87.50;;;;;;4199427;28;20045;-71
2022/06/03 08:04:00;;;;;;;0.00;0.00;;;23.00;88.30;;;;;;4185941;28;20078;-70
2022/06/03 08:06:30;;;;;;;0.00;0.00;;;23.10;87.40;;;;;;4171580;28;20168;-74
2022/06/03 08:11:34;;;;;;;0.00;0.00;;;23.20;86.90;;;;;;4185634;28;20629;-71
2022/06/03 08:14:01;;;;;;;0.00;0.00;;;23.00;86.10;;;;;;4171359;28;20060;-70
2022/06/03 08:16:25;;;;;;;0.00;0.00;;;22.90;86.80;;;;;;4184984;28;20458;-72
2022/06/03 08:18:50;;;;;;;0.00;0.00;;;23.10;87.30;;;;;;4184769;28;20049;-68
2022/06/03 08:21:15;;;;;;;0.00;0.00;;;23.30;86.70;;;;;;4158012;28;20500;-68
2022/06/03 08:23:41;;;;;;;0.00;0.00;;;23.40;86.10;;;;;;4184861;28;20053;-70
2022/06/03 08:26:24;;;;;;;0.00;0.00;;;23.40;85.80;;;;;;4185081;28;20112;-68
2022/06/03 08:28:56;;;;;;;0.00;0.00;;;23.30;83.60;;;;;;4171638;28;20052;-69
2022/06/03 08:31:25;;;;;;;0.00;0.00;;;23.00;83.90;;;;;;4185108;28;20123;-72
2022/06/03 08:33:59;;;;;;;0.00;0.00;;;22.70;84.80;;;;;;4184304;28;20071;-72
2022/06/03 08:36:29;;;;;;;0.00;0.00;;;22.80;85.20;;;;;;4184988;28;20472;-69
2022/06/03 08:39:22;;;;;;;0.00;0.00;;;23.00;83.50;;;;;;4185023;28;20056;-72
2022/06/03 08:42:06;;;;;;;0.00;0.00;;;23.00;82.80;;;;;;4184842;28;20049;-69
2022/06/03 08:44:53;;;;;;;0.00;0.00;;;23.20;83.40;;;;;;4170943;28;20056;-70
2022/06/03 08:47:36;;;;;;;0.00;0.00;;;23.40;82.10;;;;;;4184678;28;20426;-75
2022/06/03 08:50:23;;;;;;;0.00;0.00;;;23.50;81.70;;;;;;4157367;28;20534;-69
2022/06/03 08:52:51;;;;;;;0.00;0.00;;;23.70;82.60;;;;;;4184795;28;20053;-71
2022/06/03 08:55:41;;;;;;;0.00;0.00;;;24.00;82.10;;;;;;4170852;28;20052;-69
2022/06/03 08:58:24;;;;;;;0.00;0.00;;;24.20;80.90;;;;;;4184774;28;20057;-71
2022/06/03 09:01:13;;;;;;;0.00;0.00;;;24.10;80.90;;;;;;4184726;28;20095;-70
2022/06/03 09:04:03;;;;;;;0.00;0.00;;;23.60;80.40;;;;;;4171370;28;20083;-70
2022/06/03 09:07:05;;;;;;;0.00;0.00;;;23.20;82.70;;;;;;4170813;28;20049;-70
2022/06/03 09:09:46;;;;;;;;;;;23.20;82.80;;;;;;4185314;28;20115;-71
2022/06/03 09:12:28;;;;;;;0.00;0.00;;;23.40;83.10;;;;;;4184278;28;19932;-70
2022/06/03 09:14:52;;;;;;;0.00;0.00;;;23.80;83.30;;;;;;4184474;28;20056;-71
2022/06/03 09:17:48;;;;;;;0.00;0.00;;;24.20;83.10;;;;;;4184315;28;20483;-74
2022/06/03 09:20:21;;;;;;;0.00;0.00;;;24.60;82.80;;;;;;4184259;28;20047;-70
2022/06/03 09:22:45;;;;;;;0.00;0.00;;;24.70;81.20;;;;;;4184034;28;20060;-69
2022/06/03 09:25:11;;;;;;;0.00;0.00;;;24.50;81.10;;;;;;4184526;28;20064;-70
2022/06/03 09:27:35;;;;;;;0.00;0.00;;;24.60;81.20;;;;;;4170114;28;20394;-71
2022/06/03 09:30:02;;;;;;;0.00;0.00;;;24.80;80.80;;;;;;4183965;28;20045;-73
2022/06/03 09:32:27;;;;;;;0.00;0.00;;;24.80;79.80;;;;;;4184046;28;20392;-70
2022/06/03 09:35:01;;;;;;;0.00;0.00;;;24.80;80.00;;;;;;4167900;28;20056;-72
2022/06/03 09:37:34;;;;;;;0.00;0.00;;;24.80;79.80;;;;;;4167452;28;20432;-69
2022/06/03 09:39:58;;;;;;;0.00;0.00;;;25.00;80.70;;;;;;4167283;28;20054;-70
2022/06/03 09:42:25;;;;;;;0.00;0.00;;;25.20;79.60;;;;;;4167473;28;20444;-72
2022/06/03 09:44:51;;;;;;;0.00;0.00;;;25.20;79.40;;;;;;4167402;28;20392;-74
2022/06/03 09:47:18;;;;;;;0.00;0.00;;;25.30;79.50;;;;;;4167323;28;20065;-70
2022/06/03 09:49:48;;;;;;;0.00;0.00;;;25.50;79.60;;;;;;4167414;28;20512;-70
2022/06/03 09:52:13;;;;;;;0.00;0.00;;;25.50;79.10;;;;;;4167116;28;20071;-70
2022/06/03 09:54:41;;;;;;;0.00;0.00;;;25.60;78.60;;;;;;4167225;28;20057;-72
2022/06/03 09:57:14;;;;;;;0.00;0.00;;;25.60;78.50;;;;;;4153322;28;20133;-71
2022/06/03 09:59:40;;;;;;;0.00;0.00;;;25.60;78.30;;;;;;4167239;28;20042;-71
2022/06/03 10:02:07;;;;;;;0.00;0.00;;;25.70;77.80;;;;;;4167479;28;20057;-69
2022/06/03 10:04:30;;;;;;;0.00;0.00;;;25.70;78.10;;;;;;4167273;28;20045;-72
2022/06/03 10:06:53;;;;;;;0.00;0.00;;;25.90;79.00;;;;;;4167255;28;20045;-71
2022/06/03 10:17:52;;;;;;;0.00;0.00;;;26.30;76.20;;;;;;4167078;28;20041;-72
2022/06/03 10:20:14;;;;;;;0.00;0.00;;;26.50;76.20;;;;;;4181050;28;20123;-71
2022/06/03 10:22:40;;;;;;;0.00;0.00;;;26.60;76.00;;;;;;4167507;28;20417;-71
2022/06/03 10:25:03;;;;;;;0.00;0.00;;;26.60;75.60;;;;;;4167392;28;20140;-72
2022/06/03 10:27:26;;;;;;;0.00;0.00;;;26.70;75.40;;;;;;4181408;28;20437;-70
2022/06/03 10:29:51;;;;;;;0.00;0.00;;;26.70;76.10;;;;;;4167073;28;20415;-69
2022/06/03 10:32:17;;;;;;;0.00;0.00;;;26.80;75.90;;;;;;4167258;28;20057;-73
2022/06/03 10:35:18;;;;;;;0.00;0.00;;;26.50;75.00;;;;;;4181081;28;20053;-71
2022/06/03 10:37:53;;;;;;;0.00;0.00;;;26.40;74.00;;;;;;4166849;28;20049;-70
2022/06/03 10:40:17;;;;;;;0.00;0.00;;;26.20;74.30;;;;;;4184221;28;20565;-70
2022/06/03 10:42:46;;;;;;;0.00;0.00;;;26.00;75.50;;;;;;4170396;28;20052;-69
2022/06/03 10:45:09;;;;;;;0.00;0.00;;;26.20;75.50;;;;;;4156388;28;20104;-70
2022/06/03 10:47:40;;;;;;;0.00;0.00;;;26.20;74.80;;;;;;4170418;28;20431;-69
2022/06/03 10:50:09;;;;;;;;;;;26.20;75.30;;;;;;4170643;28;20366;-72
2022/06/03 11:01:07;;;;;;;0.00;0.00;;;26.80;73.70;;;;;;4169990;28;20107;-70
2022/06/03 11:03:38;;;;;;;0.00;0.00;;;26.80;72.80;;;;;;4155840;28;20504;-72
2022/06/03 11:06:11;;;;;;;0.00;0.00;;;26.70;73.30;;;;;;4169667;28;20061;-70
2022/06/03 11:08:59;;;;;;;0.00;0.00;;;26.60;72.50;;;;;;4169678;28;20454;-69
2022/06/03 11:11:35;;;;;;;0.00;0.00;;;26.50;72.20;;;;;;4169472;28;20056;-72
2022/06/03 11:14:17;;;;;;;0.00;0.00;;;26.40;72.10;;;;;;4169513;28;20049;-70
2022/06/03 11:16:58;;;;;;;0.00;0.00;;;26.40;72.60;;;;;;4182820;28;20111;-70
2022/06/03 11:19:22;;;;;;;0.00;0.00;;;26.30;73.20;;;;;;4169267;28;20879;-71
2022/06/03 11:21:47;;;;;;;0.00;0.00;;;26.20;72.80;;;;;;4169648;28;20050;-71
2022/06/03 11:24:10;;;;;;;0.00;0.00;;;26.10;72.80;;;;;;4183204;28;20084;-70
2022/06/03 11:26:41;;;;;;;0.00;0.00;;;26.00;73.00;;;;;;4169443;28;20049;-67
2022/06/03 11:29:17;;;;;;;0.00;0.00;;;26.10;73.30;;;;;;4183208;28;20049;-71
2022/06/03 11:31:42;;;;;;;0.00;0.00;;;25.90;73.90;;;;;;4169446;28;20045;-71
2022/06/03 11:34:08;;;;;;;0.00;0.00;;;26.00;74.30;;;;;;4179826;28;20061;-69
2022/06/03 11:36:52;;;;;;;0.00;0.00;;;25.80;74.90;;;;;;4171933;28;20057;-69
2022/06/03 11:39:44;;;;;;;0.00;0.00;;;25.70;75.10;;;;;;4185787;28;20450;-71
2022/06/03 11:42:17;;;;;;;0.00;0.00;;;25.70;75.70;;;;;;4172052;28;20069;-69
2022/06/03 11:44:42;;;;;;;0.00;0.00;;;25.80;75.70;;;;;;4172248;28;20417;-70
2022/06/03 11:47:08;;;;;;;0.00;0.00;;;25.80;76.20;;;;;;4172006;28;20042;-73
2022/06/03 11:49:33;;;;;;;0.00;0.00;;;25.70;75.80;;;;;;4185475;28;20053;-69
2022/06/03 11:52:02;;;;;;;0.00;0.00;;;25.70;75.80;;;;;;4172707;28;20091;-71
2022/06/03 11:54:26;;;;;;;0.00;0.00;;;25.60;76.80;;;;;;4185707;28;20077;-69
2022/06/03 11:56:49;;;;;;;0.00;0.00;;;25.40;77.70;;;;;;4185571;28;20064;-69
2022/06/03 11:59:39;;;;;;;0.00;0.00;;;25.20;78.30;;;;;;4171701;28;20037;-72
2022/06/03 12:02:27;;;;;;;0.00;0.00;;;25.00;79.40;;;;;;4171839;28;20044;-70
2022/06/03 12:04:53;;;;;;;0.00;0.00;;;24.80;80.20;;;;;;4185777;28;20545;-71
2022/06/03 12:07:35;;;;;;;0.00;0.00;;;24.80;80.20;;;;;;4172264;28;20060;-71
2022/06/03 12:10:04;;;;;;;0.00;0.00;;;24.70;80.10;;;;;;4185138;28;20064;-68
2022/06/03 12:15:30;;;;;;;0.00;0.00;;;24.70;79.50;;;;;;4184995;28;20052;-71
2022/06/03 12:17:54;;;;;;;0.00;0.00;;;24.70;78.90;;;;;;4185121;28;20107;-73
2022/06/03 12:20:50;;;;;;;0.00;0.00;;;24.70;78.10;;;;;;4184931;28;20052;-72
2022/06/03 12:23:11;;;;;;;0.00;0.00;;;24.80;77.90;;;;;;4171324;28;20042;-69
2022/06/03 12:25:33;;;;;;;0.00;0.00;;;24.80;77.60;;;;;;4171172;28;20075;-71
2022/06/03 12:27:57;;;;;;;0.00;0.00;;;24.80;77.20;;;;;;4184829;28;20103;-69
2022/06/03 12:30:40;;;;;;;0.00;0.00;;;24.80;77.00;;;;;;4171238;28;20520;-70
2022/06/03 12:33:40;;;;;;;0.00;0.00;;;25.00;77.00;;;;;;4198595;28;20095;-70
2022/06/03 12:36:22;;;;;;;0.00;0.00;;;25.00;77.30;;;;;;4184576;28;20096;-73
2022/06/03 12:38:52;;;;;;;0.00;0.00;;;25.10;78.20;;;;;;4168904;28;20053;-68
2022/06/03 12:41:46;;;;;;;0.00;0.00;;;25.10;79.00;;;;;;4171185;28;20483;-69
2022/06/03 12:44:08;;;;;;;0.00;0.00;;;25.00;78.90;;;;;;4171147;28;20373;-71
2022/06/03 12:46:41;;;;;;;0.00;0.00;;;25.00;79.40;;;;;;4184795;28;20491;-71
2022/06/03 12:49:04;;;;;;;0.00;0.00;;;24.90;79.80;;;;;;4184983;28;20044;-70
2022/06/03 12:51:32;;;;;;;0.00;0.00;;;24.90;79.70;;;;;;4184411;28;20045;-70
2022/06/03 12:54:17;;;;;;;0.00;0.00;;;24.80;79.80;;;;;;4170627;28;20056;-72
2022/06/03 12:56:43;;;;;;;0.00;0.00;;;24.80;80.20;;;;;;4170715;28;20084;-73
2022/06/03 12:59:21;;;;;;;0.00;0.00;;;24.80;80.60;;;;;;4156751;28;20049;-72
2022/06/03 13:02:29;;;;;;;0.00;0.00;;;24.80;81.70;;;;;;4170287;28;20076;-72
2022/06/03 13:04:54;;;;;;;0.00;0.00;;;24.80;81.20;;;;;;4157555;28;20060;-69
2022/06/03 13:07:35;;;;;;;0.00;0.00;;;24.60;80.50;;;;;;4170833;28;20110;-71
2022/06/03 13:10:03;;;;;;;0.00;0.00;;;24.40;80.00;;;;;;4184411;28;20094;-72
2022/06/03 13:12:31;;;;;;;0.00;0.00;;;24.10;80.30;;;;;;4184079;28;20148;-68
2022/06/03 13:14:53;;;;;;;0.00;0.00;;;23.70;80.80;;;;;;4170554;28;20049;-71
2022/06/03 13:17:53;;;;;;;0.00;0.00;;;23.50;81.60;;;;;;4170331;28;20127;-69
2022/06/03 13:20:35;;;;;;;0.00;0.00;;;23.30;83.10;;;;;;4184003;28;20088;-70
2022/06/03 13:22:58;;;;;;;0.00;0.00;;;23.00;83.20;;;;;;4184137;28;20056;-68
2022/06/03 13:25:20;;;;;;;0.00;0.00;;;22.90;83.20;;;;;;4185056;28;20456;-69
2022/06/03 13:28:12;;;;;;;0.00;0.00;;;22.70;84.00;;;;;;4170851;28;20105;-72
2022/06/03 13:30:38;;;;;;;0.00;0.00;;;22.50;84.60;;;;;;4171152;28;20054;-72
2022/06/03 13:33:12;;;;;;;0.00;0.00;;;22.20;86.60;;;;;;4170202;28;20057;-72
2022/06/03 13:36:07;;;;;;;0.00;0.00;;;22.10;87.50;;;;;;4184518;28;20045;-73
2022/06/03 13:38:44;;;;;;;0.00;0.00;;;22.10;88.20;;;;;;4184316;28;20048;-70
2022/06/03 13:44:31;;;;;;;0.00;0.00;;;22.00;88.50;;;;;;4198413;28;20051;-69
2022/06/03 13:46:55;;;;;;;0.00;0.00;;;22.00;89.10;;;;;;4184160;28;20446;-68
2022/06/03 13:49:25;;;;;;;0.00;0.00;;;22.00;88.90;;;;;;4184634;28;20434;-73
2022/06/03 13:51:51;;;;;;;0.00;0.00;;;22.10;89.10;;;;;;4170843;28;20041;-69
2022/06/03 13:54:33;;;;;;;0.00;0.00;;;22.20;89.70;;;;;;4198175;28;20490;-68
2022/06/03 13:57:21;;;;;;;0.00;0.00;;;22.30;89.60;;;;;;4183837;28;20056;-68
2022/06/03 13:59:46;;;;;;;0.00;0.00;;;22.30;89.00;;;;;;4170206;28;20103;-72
2022/06/03 14:02:19;;;;;;;0.00;0.00;;;22.30;88.00;;;;;;4170331;28;20033;-67
2022/06/03 14:04:51;;;;;;;0.00;0.00;;;22.20;88.10;;;;;;4184121;28;20118;-69
2022/06/03 14:07:25;;;;;;;0.00;0.00;;;22.10;88.60;;;;;;4156228;28;20056;-69
2022/06/03 14:09:51;;;;;;;0.00;0.00;;;21.90;89.00;;;;;;4170726;28;20554;-71
2022/06/03 14:12:33;;;;;;;0.00;0.00;;;21.60;89.10;;;;;;4184468;28;20064;-68
2022/06/03 14:15:06;;;;;;;0.00;0.00;;;21.50;90.30;;;;;;4173519;28;20546;-69
2022/06/03 14:17:46;;;;;;;0.00;0.00;;;21.60;90.60;;;;;;4174173;28;20103;-70
2022/06/03 14:20:15;;;;;;;0.00;0.00;;;21.50;90.70;;;;;;4187080;28;20052;-75
2022/06/03 14:22:54;;;;;;;0.00;0.00;;;21.50;90.90;;;;;;4187156;28;20067;-72
2022/06/03 14:25:33;;;;;;;0.00;0.00;;;21.40;91.40;;;;;;4187201;28;20115;-69